Austin, Texas
Traffic Map
Current Weather Conditions
Austin, Texas
Overcast Haze
Overcast
51°
Feels Like: 51°
Wind Chill: 51° Ceiling: 300
Heat Index: 51° Visibility: 3mi
Dew Point: 50° Wind: 0mph
Humidity: 96% Direction: ° ()
Pressure: 30.19in Gusts: 0mph
Raw Report DataKATT 231551Z AUTO 00000KT 3SM BR OVC003 11/10 A3019 RMK AO2 SLP227 T01060100
Traffic Incident Summary
Active as of:
Severity:
Category:
InformationThere was an issue retrieving the traffic information for this location. Please try a different location or try again shortly.
Advertisements